Time,TemperatureF,DewpointF,PressureIn,WindDirection,WindDirectionDegrees,WindSpeedMPH,WindSpeedGustMPH,Humidity,HourlyPrecipIn,Conditions,Clouds,dailyrainin,SoftwareType,DateUTC
2013-12-14 00:00:00,26.7,19.2,29.71,ENE,74,2.3,2.3,73,0.00,CLR,,0.00,WeatherDisplay:10.37,2013-12-14 05:00:00,
2013-12-14 00:01:00,26.6,19.1,29.71,ENE,75,2.3,2.3,73,0.00,CLR,,0.00,WeatherDisplay:10.37,2013-12-14 05:01:00,
2013-12-14 00:02:00,26.6,19.4,29.71,North,1,2.0,2.0,74,0.00,CLR,,0.00,WeatherDisplay:10.37,2013-12-14 05:02:00,
2013-12-14 00:04:00,26.6,19.4,29.71,NNE,13,2.3,0.0,74,0.00,CLR,,0.00,WeatherDisplay:10.37,2013-12-14 05:04:00,
2013-12-14 00:06:00,26.6,19.4,29.71,North,4,0.0,0.0,74,0.00,CLR,,0.00,WeatherDisplay:10.37,2013-12-14 05:06:00,
2013-12-14 00:11:00,26.5,19.3,29.71,North,8,1.2,0.0,74,0.00,CLR,,0.00,WeatherDisplay:10.37,2013-12-14 05:11:00,
2013-12-14 00:16:00,26.5,19.3,29.72,NE,44,1.2,1.2,74,0.00,CLR,,0.00,WeatherDisplay:10.37,2013-12-14 05:16:00,
2013-12-14 00:17:00,26.5,19.3,29.71,NNE,21,2.3,2.3,74,0.00,CLR,,0.00,WeatherDisplay:10.37,2013-12-14 05:17:00,
2013-12-14 00:22:00,26.3,19.1,29.72,ENE,77,2.3,2.3,74,0.00,CLR,,0.00,WeatherDisplay:10.37,2013-12-14 05:22:00,
2013-12-14 00:27:00,26.2,19.0,29.72,NNW,332,3.5,3.5,74,0.00,CLR,,0.00,WeatherDisplay:10.37,2013-12-14 05:27:00,
2013-12-14 00:32:00,26.1,19.3,29.72,NNW,342,3.5,3.5,75,0.00,CLR,,0.00,WeatherDisplay:10.37,2013-12-14 05:32:00,
2013-12-14 00:37:00,25.9,19.1,29.73,WNW,296,3.5,3.5,75,0.00,CLR,,0.00,WeatherDisplay:10.37,2013-12-14 05:37:00,
2013-12-14 00:42:00,25.7,18.9,29.74,WNW,288,1.2,0.0,75,0.00,CLR,,0.00,WeatherDisplay:10.37,2013-12-14 05:42:00,
2013-12-14 00:47:00,25.7,18.9,29.74,NW,323,2.3,2.3,75,0.00,CLR,,0.00,WeatherDisplay:10.37,2013-12-14 05:47:00,
2013-12-14 00:52:00,25.6,18.8,29.74,NNW,347,1.2,1.2,75,0.00,CLR,,0.00,WeatherDisplay:10.37,2013-12-14 05:52:00,
2013-12-14 00:57:00,25.5,19.0,29.74,NW,326,1.2,1.2,76,0.00,CLR,,0.00,WeatherDisplay:10.37,2013-12-14 05:57:00,
2013-12-14 01:02:00,25.5,19.0,29.74,NW,321,2.3,2.3,76,0.00,CLR,,0.00,WeatherDisplay:10.37,2013-12-14 06:02:00,
2013-12-14 01:07:00,25.3,18.8,29.74,NW,326,2.3,0.0,76,0.00,CLR,,0.00,WeatherDisplay:10.37,2013-12-14 06:07:00,
2013-12-14 01:12:00,25.2,18.7,29.75,NE,39,3.5,3.5,76,0.00,CLR,,0.00,WeatherDisplay:10.37,2013-12-14 06:12:00,
2013-12-14 01:17:00,25.1,18.3,29.74,NE,50,5.0,5.0,75,0.00,FEW,,0.00,WeatherDisplay:10.37,2013-12-14 06:17:00,
2013-12-14 01:22:00,24.9,17.8,29.75,NNW,331,5.0,5.0,74,0.00,FEW,,0.00,WeatherDisplay:10.37,2013-12-14 06:22:00,
2013-12-14 01:27:00,24.8,17.7,29.74,NW,315,5.8,5.8,74,0.00,FEW,,0.00,WeatherDisplay:10.37,2013-12-14 06:27:00,
2013-12-14 01:32:00,24.7,17.6,29.74,North,4,5.8,5.8,74,0.00,FEW,,0.00,WeatherDisplay:10.37,2013-12-14 06:32:00,
2013-12-14 01:37:00,24.5,17.4,29.74,NNW,337,3.5,3.5,74,0.00,FEW,,0.00,WeatherDisplay:10.37,2013-12-14 06:37:00,
2013-12-14 01:42:00,24.4,17.0,29.75,NNE,15,4.6,4.6,73,0.00,FEW,,0.00,WeatherDisplay:10.37,2013-12-14 06:42:00,
2013-12-14 01:47:00,24.3,16.9,29.75,NNW,345,3.5,3.7,73,0.00,FEW,,0.00,WeatherDisplay:10.37,2013-12-14 06:47:00,
2013-12-14 01:52:00,24.3,16.9,29.75,NNW,335,2.3,2.3,73,0.00,FEW,,0.00,WeatherDisplay:10.37,2013-12-14 06:52:00,
2013-12-14 01:57:00,24.2,16.8,29.75,NNW,347,3.5,3.5,73,0.00,FEW,,0.00,WeatherDisplay:10.37,2013-12-14 06:57:00,
2013-12-14 02:02:00,24.2,16.5,29.75,North,8,3.5,3.5,72,0.00,FEW,,0.00,WeatherDisplay:10.37,2013-12-14 07:02:00,
2013-12-14 02:07:00,24.2,16.5,29.75,NNE,26,2.3,2.3,72,0.00,FEW,,0.00,WeatherDisplay:10.37,2013-12-14 07:07:00,
2013-12-14 02:12:00,24.2,16.8,29.75,NW,318,2.3,2.3,73,0.00,FEW,,0.00,WeatherDisplay:10.37,2013-12-14 07:12:00,
2013-12-14 02:17:00,24.2,16.8,29.75,NNW,335,3.5,3.5,73,0.00,FEW,,0.00,WeatherDisplay:10.37,2013-12-14 07:17:00,
2013-12-14 02:22:00,24.1,16.4,29.75,NNW,328,0.0,0.0,72,0.00,FEW,,0.00,WeatherDisplay:10.37,2013-12-14 07:22:00,
2013-12-14 02:27:00,24.0,16.0,29.76,NNE,12,3.5,3.5,71,0.00,FEW,,0.00,WeatherDisplay:10.37,2013-12-14 07:27:00,
2013-12-14 02:32:00,24.0,16.0,29.76,NW,316,2.3,2.3,71,0.00,FEW,,0.00,WeatherDisplay:10.37,2013-12-14 07:32:00,
2013-12-14 02:37:00,24.0,16.0,29.77,NW,312,0.0,0.0,71,0.00,FEW,,0.00,WeatherDisplay:10.37,2013-12-14 07:37:00,
2013-12-14 02:42:00,24.0,16.0,29.77,NW,314,0.0,0.0,71,0.00,FEW,,0.00,WeatherDisplay:10.37,2013-12-14 07:42:00,
2013-12-14 02:47:00,23.9,15.5,29.77,NNE,15,2.0,2.0,70,0.00,FEW,,0.00,WeatherDisplay:10.37,2013-12-14 07:47:00,
2013-12-14 02:52:00,23.9,15.5,29.77,NNE,28,0.0,0.0,70,0.00,FEW,,0.00,WeatherDisplay:10.37,2013-12-14 07:52:00,
2013-12-14 02:57:00,23.9,15.9,29.77,NNW,347,1.2,1.2,71,0.00,FEW,,0.00,WeatherDisplay:10.37,2013-12-14 07:57:00,
2013-12-14 03:02:00,23.8,15.4,29.77,NE,47,2.3,2.3,70,0.00,FEW,,0.00,WeatherDisplay:10.37,2013-12-14 08:02:00,
2013-12-14 03:07:00,23.8,15.4,29.77,NW,326,3.5,3.5,70,0.00,FEW,,0.00,WeatherDisplay:10.37,2013-12-14 08:07:00,
2013-12-14 03:12:00,23.8,15.4,29.77,NW,323,2.0,2.0,70,0.00,FEW,,0.00,WeatherDisplay:10.37,2013-12-14 08:12:00,
2013-12-14 03:17:00,23.7,15.3,29.77,NW,304,2.3,2.6,70,0.00,OVC,,0.00,WeatherDisplay:10.37,2013-12-14 08:17:00,
2013-12-14 03:22:00,23.6,15.2,29.77,NNW,329,1.2,1.2,70,0.00,OVC,,0.00,WeatherDisplay:10.37,2013-12-14 08:22:00,
2013-12-14 03:27:00,23.6,15.2,29.77,NW,307,4.0,4.0,70,0.00,OVC,,0.00,WeatherDisplay:10.37,2013-12-14 08:27:00,
2013-12-14 03:32:00,22.0,13.4,29.77,North,349,4.6,4.6,69,0.00,OVC,,0.00,WeatherDisplay:10.37,2013-12-14 08:32:00,
2013-12-14 03:37:00,22.7,14.1,29.77,NE,34,0.0,0.0,69,0.00,OVC,,0.00,WeatherDisplay:10.37,2013-12-14 08:37:00,
2013-12-14 03:42:00,22.7,14.1,29.77,NE,34,0.0,0.0,69,0.00,OVC,,0.00,WeatherDisplay:10.37,2013-12-14 08:42:00,
2013-12-14 03:47:00,22.7,14.1,29.76,North,0,0.0,0.0,69,0.00,OVC,,0.00,WeatherDisplay:10.37,2013-12-14 08:47:00,
2013-12-14 03:52:00,22.7,14.1,29.76,North,0,0.0,0.0,69,0.00,OVC,,0.00,WeatherDisplay:10.37,2013-12-14 08:52:00,
2013-12-14 03:57:00,22.7,14.1,29.76,North,0,0.0,0.0,69,0.00,OVC,,0.00,WeatherDisplay:10.37,2013-12-14 08:57:00,
2013-12-14 04:02:00,22.7,14.1,29.76,North,0,0.0,0.0,69,0.00,OVC,,0.00,WeatherDisplay:10.37,2013-12-14 09:02:00,
2013-12-14 04:07:00,22.7,14.1,29.76,North,0,0.0,0.0,69,0.00,OVC,,0.00,WeatherDisplay:10.37,2013-12-14 09:07:00,
2013-12-14 04:12:00,22.7,14.1,29.77,North,0,0.0,0.0,69,0.00,OVC,,0.00,WeatherDisplay:10.37,2013-12-14 09:12:00,
2013-12-14 04:17:00,22.7,14.1,29.77,North,0,0.0,0.0,69,0.00,OVC,,0.00,WeatherDisplay:10.37,2013-12-14 09:17:00,
2013-12-14 04:22:00,22.7,14.1,29.77,North,0,0.0,0.0,69,0.00,OVC,,0.00,WeatherDisplay:10.37,2013-12-14 09:22:00,
2013-12-14 04:27:00,22.7,14.1,29.77,North,0,0.0,0.0,69,0.00,OVC,,0.00,WeatherDisplay:10.37,2013-12-14 09:27:00,
2013-12-14 04:32:00,22.7,14.1,29.77,North,0,0.0,0.0,69,0.00,OVC,,0.00,WeatherDisplay:10.37,2013-12-14 09:32:00,
2013-12-14 04:37:00,22.7,14.1,29.77,North,0,0.0,0.0,69,0.00,OVC,,0.00,WeatherDisplay:10.37,2013-12-14 09:37:00,
2013-12-14 04:42:00,22.7,14.1,29.78,North,0,0.0,0.0,69,0.00,OVC,,0.00,WeatherDisplay:10.37,2013-12-14 09:42:00,
2013-12-14 04:47:00,22.7,14.1,29.78,North,0,0.0,0.0,69,0.00,OVC,,0.00,WeatherDisplay:10.37,2013-12-14 09:47:00,
2013-12-14 04:52:00,22.7,14.1,29.78,North,0,0.0,0.0,69,0.00,OVC,,0.00,WeatherDisplay:10.37,2013-12-14 09:52:00,
2013-12-14 04:57:00,22.7,14.1,29.79,North,0,0.0,0.0,69,0.00,OVC,,0.00,WeatherDisplay:10.37,2013-12-14 09:57:00,
2013-12-14 05:02:00,22.7,14.1,29.79,North,0,0.0,0.0,69,0.00,OVC,,0.00,WeatherDisplay:10.37,2013-12-14 10:02:00,
2013-12-14 05:07:00,22.7,14.1,29.80,North,0,0.0,0.0,69,0.00,OVC,,0.00,WeatherDisplay:10.37,2013-12-14 10:07:00,
2013-12-14 05:12:00,22.7,14.1,29.80,North,0,0.0,0.0,69,0.00,OVC,,0.00,WeatherDisplay:10.37,2013-12-14 10:12:00,
2013-12-14 05:17:00,22.7,14.1,29.80,North,0,0.0,0.0,69,0.00,OVC,,0.00,WeatherDisplay:10.37,2013-12-14 10:17:00,
2013-12-14 05:22:00,22.7,14.1,29.80,North,0,0.0,0.0,69,0.00,OVC,,0.00,WeatherDisplay:10.37,2013-12-14 10:22:00,
2013-12-14 05:27:00,22.7,14.1,29.79,North,0,0.0,0.0,69,0.00,OVC,,0.00,WeatherDisplay:10.37,2013-12-14 10:27:00,
2013-12-14 05:32:00,22.7,14.1,29.80,North,0,0.0,0.0,69,0.00,OVC,,0.00,WeatherDisplay:10.37,2013-12-14 10:32:00,
2013-12-14 05:37:00,22.7,14.1,29.80,North,0,0.0,0.0,69,0.00,OVC,,0.00,WeatherDisplay:10.37,2013-12-14 10:37:00,
2013-12-14 05:42:00,22.7,14.1,29.80,North,0,0.0,0.0,69,0.00,OVC,,0.00,WeatherDisplay:10.37,2013-12-14 10:42:00,
2013-12-14 05:47:00,22.7,14.1,29.80,North,0,0.0,0.0,69,0.00,-SN,,0.00,WeatherDisplay:10.37,2013-12-14 10:47:00,
2013-12-14 05:52:00,22.7,14.1,29.79,North,0,0.0,0.0,69,0.00,-SN,,0.00,WeatherDisplay:10.37,2013-12-14 10:52:00,
2013-12-14 05:57:00,22.7,14.1,29.80,North,0,0.0,0.0,69,0.00,-SN,,0.00,WeatherDisplay:10.37,2013-12-14 10:57:00,
2013-12-14 06:02:00,22.7,14.1,29.81,North,0,0.0,0.0,69,0.00,-SN,,0.00,WeatherDisplay:10.37,2013-12-14 11:02:00,
2013-12-14 06:07:00,22.7,14.1,29.82,North,0,0.0,0.0,69,0.00,-SN,,0.00,WeatherDisplay:10.37,2013-12-14 11:07:00,
2013-12-14 06:12:00,22.7,14.1,29.81,North,0,0.0,0.0,69,0.00,-SN,,0.00,WeatherDisplay:10.37,2013-12-14 11:12:00,
2013-12-14 06:17:00,22.7,14.1,29.82,North,0,0.0,0.0,69,0.00,-SN,,0.00,WeatherDisplay:10.37,2013-12-14 11:17:00,
2013-12-14 06:22:00,22.7,14.1,29.81,North,0,0.0,0.0,69,0.00,-SN,,0.00,WeatherDisplay:10.37,2013-12-14 11:22:00,
2013-12-14 06:27:00,22.7,14.1,29.82,North,0,0.0,0.0,69,0.00,-SN,,0.00,WeatherDisplay:10.37,2013-12-14 11:27:00,
2013-12-14 06:32:00,22.7,14.1,29.82,North,0,0.0,0.0,69,0.00,-SN,,0.00,WeatherDisplay:10.37,2013-12-14 11:32:00,
2013-12-14 06:37:00,22.7,14.1,29.82,North,0,0.0,0.0,69,0.00,-SN,,0.00,WeatherDisplay:10.37,2013-12-14 11:37:00,
2013-12-14 06:42:00,22.7,14.1,29.82,North,0,0.0,0.0,69,0.00,-SN,,0.00,WeatherDisplay:10.37,2013-12-14 11:42:00,
2013-12-14 06:47:00,22.7,14.1,29.82,North,0,0.0,0.0,69,0.00,-SN,,0.00,WeatherDisplay:10.37,2013-12-14 11:47:00,
2013-12-14 06:52:00,22.7,14.1,29.82,North,0,0.0,0.0,69,0.00,-SN,,0.00,WeatherDisplay:10.37,2013-12-14 11:52:00,
2013-12-14 06:57:00,22.7,14.1,29.82,North,0,0.0,0.0,69,0.00,-SN,,0.00,WeatherDisplay:10.37,2013-12-14 11:57:00,
2013-12-14 07:02:00,22.7,14.1,29.83,North,0,0.0,0.0,69,0.00,-SN,,0.00,WeatherDisplay:10.37,2013-12-14 12:02:00,
2013-12-14 07:07:00,22.7,14.1,29.83,North,0,0.0,0.0,69,0.00,-SN,,0.00,WeatherDisplay:10.37,2013-12-14 12:07:00,
2013-12-14 07:12:00,22.7,14.1,29.82,North,0,0.0,0.0,69,0.00,-SN,,0.00,WeatherDisplay:10.37,2013-12-14 12:12:00,
2013-12-14 07:17:00,22.7,14.1,29.82,North,0,0.0,0.0,69,0.00,-SN,,0.00,WeatherDisplay:10.37,2013-12-14 12:17:00,
2013-12-14 07:22:00,22.7,14.1,29.83,North,0,0.0,0.0,69,0.00,-SN,,0.00,WeatherDisplay:10.37,2013-12-14 12:22:00,
2013-12-14 07:27:00,22.7,14.1,29.82,North,0,0.0,0.0,69,0.00,-SN,,0.00,WeatherDisplay:10.37,2013-12-14 12:27:00,
2013-12-14 07:32:00,22.7,14.1,29.83,North,0,0.0,0.0,69,0.00,-SN,,0.00,WeatherDisplay:10.37,2013-12-14 12:32:00,
2013-12-14 07:37:00,22.7,14.1,29.83,North,0,0.0,0.0,69,0.00,-SN,,0.00,WeatherDisplay:10.37,2013-12-14 12:37:00,
2013-12-14 07:42:00,22.7,14.1,29.83,North,0,0.0,0.0,69,0.00,-SN,,0.00,WeatherDisplay:10.37,2013-12-14 12:42:00,
2013-12-14 07:47:00,22.7,14.1,29.84,North,0,0.0,0.0,69,0.00,-SN,,0.00,WeatherDisplay:10.37,2013-12-14 12:47:00,
2013-12-14 07:52:00,22.7,14.1,29.84,North,0,0.0,0.0,69,0.00,-SN,,0.00,WeatherDisplay:10.37,2013-12-14 12:52:00,
2013-12-14 07:57:00,22.7,14.1,29.84,North,0,0.0,0.0,69,0.00,-SN,,0.00,WeatherDisplay:10.37,2013-12-14 12:57:00,
2013-12-14 08:02:00,22.7,14.1,29.84,North,0,0.0,0.0,69,0.00,-SN,,0.00,WeatherDisplay:10.37,2013-12-14 13:02:00,
2013-12-14 08:07:00,22.7,14.1,29.85,North,0,0.0,0.0,69,0.00,-SN,,0.00,WeatherDisplay:10.37,2013-12-14 13:07:00,
2013-12-14 08:12:00,22.7,14.1,29.84,North,0,0.0,0.0,69,0.00,-SN,,0.00,WeatherDisplay:10.37,2013-12-14 13:12:00,
2013-12-14 08:18:00,22.7,14.1,29.84,North,0,0.0,0.0,69,0.00,-SN,,0.00,WeatherDisplay:10.37,2013-12-14 13:18:00,
2013-12-14 08:23:00,22.7,14.1,29.85,North,0,0.0,0.0,69,0.00,-SN,,0.00,WeatherDisplay:10.37,2013-12-14 13:23:00,
2013-12-14 08:28:00,22.7,14.1,29.85,North,0,0.0,0.0,69,0.00,-SN,,0.00,WeatherDisplay:10.37,2013-12-14 13:28:00,
2013-12-14 08:33:00,20.9,12.3,29.85,WNW,285,0.0,0.2,69,0.00,-SN,,0.00,WeatherDisplay:10.37,2013-12-14 13:33:00,
2013-12-14 08:38:00,21.1,18.1,29.85,NNW,335,2.3,0.0,88,0.00,-SN,,0.00,WeatherDisplay:10.37,2013-12-14 13:38:00,
2013-12-14 08:43:00,21.2,18.2,29.86,NW,325,1.2,1.2,88,0.00,-SN,,0.00,WeatherDisplay:10.37,2013-12-14 13:43:00,
2013-12-14 08:48:00,21.2,18.2,29.86,ESE,121,0.0,0.0,88,0.00,-SN,,0.00,WeatherDisplay:10.37,2013-12-14 13:48:00,
2013-12-14 08:53:00,21.2,18.2,29.86,NNW,342,0.0,0.0,88,0.00,-SN,,0.00,WeatherDisplay:10.37,2013-12-14 13:53:00,
2013-12-14 08:58:00,21.4,18.4,29.86,NNW,332,0.0,0.0,88,0.00,-SN,,0.00,WeatherDisplay:10.37,2013-12-14 13:58:00,
2013-12-14 09:03:00,21.4,18.1,29.86,SE,124,0.0,0.0,87,0.00,-SN,,0.00,WeatherDisplay:10.37,2013-12-14 14:03:00,
2013-12-14 09:08:00,21.4,18.1,29.86,North,351,2.3,0.0,87,0.00,-SN,,0.00,WeatherDisplay:10.37,2013-12-14 14:08:00,
2013-12-14 09:13:00,21.4,18.1,29.86,NE,39,2.3,2.3,87,0.00,-SN,,0.00,WeatherDisplay:10.37,2013-12-14 14:13:00,
2013-12-14 09:18:00,21.2,17.9,29.86,NE,37,1.2,1.2,87,0.00,-SN,,0.00,WeatherDisplay:10.37,2013-12-14 14:18:00,
2013-12-14 09:23:00,21.1,17.8,29.87,WNW,303,2.0,2.0,87,0.00,-SN,,0.00,WeatherDisplay:10.37,2013-12-14 14:23:00,
2013-12-14 09:28:00,21.0,18.0,29.87,WNW,288,2.3,2.3,88,0.00,-SN,,0.00,WeatherDisplay:10.37,2013-12-14 14:28:00,
2013-12-14 09:33:00,20.9,17.9,29.87,North,352,2.3,2.3,88,0.00,-SN,,0.00,WeatherDisplay:10.37,2013-12-14 14:33:00,
2013-12-14 09:38:00,20.9,17.9,29.88,ENE,65,1.2,1.2,88,0.00,-SN,,0.00,WeatherDisplay:10.37,2013-12-14 14:38:00,
2013-12-14 09:43:00,20.9,17.9,29.88,NW,325,1.2,1.2,88,0.00,-SN,,0.00,WeatherDisplay:10.37,2013-12-14 14:43:00,
2013-12-14 09:48:00,21.0,18.3,29.87,NNE,26,1.0,1.0,89,0.00,,,0.00,WeatherDisplay:10.37,2013-12-14 14:48:00,
2013-12-14 09:53:00,21.1,18.4,29.88,NNW,339,3.0,3.0,89,0.00,,,0.00,WeatherDisplay:10.37,2013-12-14 14:53:00,
2013-12-14 09:58:00,21.0,18.0,29.88,SE,135,5.8,5.8,88,0.00,,,0.00,WeatherDisplay:10.37,2013-12-14 14:58:00,
2013-12-14 10:03:00,21.1,18.1,29.88,SW,214,2.3,2.3,88,0.00,,,0.00,WeatherDisplay:10.37,2013-12-14 15:03:00,
2013-12-14 10:08:00,21.2,18.2,29.88,East,94,2.0,2.0,88,0.00,,,0.00,WeatherDisplay:10.37,2013-12-14 15:08:00,
2013-12-14 10:13:00,21.3,18.3,29.88,NW,319,2.3,2.3,88,0.00,,,0.00,WeatherDisplay:10.37,2013-12-14 15:13:00,
2013-12-14 10:18:00,21.4,18.4,29.88,NW,321,3.5,3.5,88,0.00,-SN,,0.00,WeatherDisplay:10.37,2013-12-14 15:18:00,
2013-12-14 10:23:00,21.5,18.5,29.88,NNW,347,2.3,2.3,88,0.00,-SN,,0.00,WeatherDisplay:10.37,2013-12-14 15:23:00,
2013-12-14 10:28:00,21.7,18.7,29.88,NNW,332,1.2,1.2,88,0.00,-SN,,0.00,WeatherDisplay:10.37,2013-12-14 15:28:00,
2013-12-14 10:33:00,21.7,18.4,29.88,NE,40,3.5,0.0,87,0.00,-SN,,0.00,WeatherDisplay:10.37,2013-12-14 15:33:00,
2013-12-14 10:38:00,21.8,18.5,29.88,NW,326,1.2,1.2,87,0.00,-SN,,0.00,WeatherDisplay:10.37,2013-12-14 15:38:00,
2013-12-14 10:43:00,22.0,18.7,29.88,NNW,342,1.2,0.0,87,0.00,-SN,,0.00,WeatherDisplay:10.37,2013-12-14 15:43:00,
2013-12-14 10:48:00,21.9,18.6,29.87,NW,318,3.5,3.5,87,0.00,-SN,,0.00,WeatherDisplay:10.37,2013-12-14 15:48:00,
2013-12-14 10:53:00,21.9,18.6,29.87,SW,217,3.5,3.5,87,0.00,-SN,,0.00,WeatherDisplay:10.37,2013-12-14 15:53:00,
2013-12-14 10:58:00,21.8,18.3,29.87,ENE,68,3.5,3.5,86,0.00,-SN,,0.00,WeatherDisplay:10.37,2013-12-14 15:58:00,
2013-12-14 11:03:00,21.6,18.1,29.87,NW,318,2.3,2.3,86,0.00,-SN,,0.00,WeatherDisplay:10.37,2013-12-14 16:03:00,
2013-12-14 11:08:00,21.5,18.0,29.86,North,6,3.5,3.5,86,0.00,-SN,,0.00,WeatherDisplay:10.37,2013-12-14 16:08:00,
2013-12-14 11:13:00,21.5,18.0,29.86,NE,48,4.6,4.6,86,0.00,-SN,,0.00,WeatherDisplay:10.37,2013-12-14 16:13:00,
2013-12-14 11:18:00,21.5,18.0,29.85,NNW,343,3.5,3.5,86,0.00,-SN,,0.00,WeatherDisplay:10.37,2013-12-14 16:18:00,
2013-12-14 11:23:00,21.5,18.0,29.85,NNW,338,3.5,3.5,86,0.00,-SN,,0.00,WeatherDisplay:10.37,2013-12-14 16:23:00,
2013-12-14 11:28:00,21.3,17.5,29.85,NNE,27,3.5,3.6,85,0.00,-SN,,0.00,WeatherDisplay:10.37,2013-12-14 16:28:00,
2013-12-14 11:33:00,21.2,17.4,29.84,WNW,294,4.6,4.6,85,0.00,-SN,,0.00,WeatherDisplay:10.37,2013-12-14 16:33:00,
2013-12-14 11:38:00,21.3,17.5,29.84,WSW,242,3.5,3.5,85,0.00,-SN,,0.00,WeatherDisplay:10.37,2013-12-14 16:38:00,
2013-12-14 11:43:00,21.5,17.7,29.83,ENE,61,3.5,3.5,85,0.00,-SN,,0.00,WeatherDisplay:10.37,2013-12-14 16:43:00,
2013-12-14 11:48:00,21.4,17.6,29.82,NE,51,2.3,2.3,85,0.00,-SN,,0.00,WeatherDisplay:10.37,2013-12-14 16:48:00,
2013-12-14 11:53:00,21.6,17.8,29.82,WNW,291,1.2,1.2,85,0.00,-SN,,0.00,WeatherDisplay:10.37,2013-12-14 16:53:00,
2013-12-14 11:58:00,21.6,17.8,29.82,WNW,302,1.2,1.2,85,0.00,-SN,,0.00,WeatherDisplay:10.37,2013-12-14 16:58:00,
2013-12-14 12:03:00,21.6,17.8,29.82,WNW,282,3.5,3.5,85,0.00,-SN,,0.00,WeatherDisplay:10.37,2013-12-14 17:03:00,
2013-12-14 12:08:00,21.6,17.8,29.81,NNW,332,2.3,2.3,85,0.00,-SN,,0.00,WeatherDisplay:10.37,2013-12-14 17:08:00,
2013-12-14 12:13:00,21.6,18.1,29.81,NNW,333,4.6,4.6,86,0.00,-SN,,0.00,WeatherDisplay:10.37,2013-12-14 17:13:00,
2013-12-14 12:18:00,21.6,18.1,29.81,NNW,340,3.5,3.5,86,0.00,-SN,,0.00,WeatherDisplay:10.37,2013-12-14 17:18:00,
2013-12-14 12:23:00,21.3,17.2,29.81,NW,324,4.6,4.6,84,0.00,-SN,,0.00,WeatherDisplay:10.37,2013-12-14 17:23:00,
2013-12-14 12:28:00,21.4,17.6,29.81,NW,321,3.5,3.5,85,0.00,-SN,,0.00,WeatherDisplay:10.37,2013-12-14 17:28:00,
2013-12-14 12:33:00,21.6,17.8,29.80,West,269,3.5,3.5,85,0.00,-SN,,0.00,WeatherDisplay:10.37,2013-12-14 17:33:00,
2013-12-14 12:38:00,21.4,17.3,29.80,NW,318,3.5,3.5,84,0.00,-SN,,0.00,WeatherDisplay:10.37,2013-12-14 17:38:00,
2013-12-14 12:43:00,21.2,17.1,29.79,NNE,14,9.0,9.0,84,0.00,-SN,,0.00,WeatherDisplay:10.37,2013-12-14 17:43:00,
2013-12-14 12:48:00,21.0,17.2,29.79,NE,51,2.3,2.3,85,0.00,-SN,,0.00,WeatherDisplay:10.37,2013-12-14 17:48:00,
2013-12-14 12:53:00,21.1,17.3,29.79,ENE,72,3.5,3.5,85,0.00,-SN,,0.00,WeatherDisplay:10.37,2013-12-14 17:53:00,
2013-12-14 12:58:00,21.1,17.3,29.78,West,264,3.5,3.5,85,0.00,-SN,,0.00,WeatherDisplay:10.37,2013-12-14 17:58:00,
2013-12-14 13:03:00,21.2,17.4,29.79,NNW,342,4.6,4.6,85,0.00,-SN,,0.00,WeatherDisplay:10.37,2013-12-14 18:03:00,
2013-12-14 13:08:00,21.1,17.3,29.78,WNW,295,5.8,5.8,85,0.00,-SN,,0.00,WeatherDisplay:10.37,2013-12-14 18:08:00,
2013-12-14 13:13:00,21.2,17.4,29.79,East,99,2.0,2.0,85,0.00,-SN,,0.00,WeatherDisplay:10.37,2013-12-14 18:13:00,
2013-12-14 13:18:00,21.2,17.4,29.78,WNW,297,2.3,2.3,85,0.00,-SN,,0.00,WeatherDisplay:10.37,2013-12-14 18:18:00,
2013-12-14 13:23:00,21.1,17.0,29.78,NNE,27,3.5,3.5,84,0.00,-SN,,0.00,WeatherDisplay:10.37,2013-12-14 18:23:00,
2013-12-14 13:28:00,21.1,17.0,29.77,East,83,2.0,2.0,84,0.00,-SN,,0.00,WeatherDisplay:10.37,2013-12-14 18:28:00,
2013-12-14 13:33:00,21.0,16.9,29.77,East,101,3.5,3.5,84,0.00,-SN,,0.00,WeatherDisplay:10.37,2013-12-14 18:33:00,
2013-12-14 13:38:00,21.0,16.9,29.77,NW,314,3.5,3.5,84,0.00,-SN,,0.00,WeatherDisplay:10.37,2013-12-14 18:38:00,
2013-12-14 13:43:00,21.0,16.9,29.77,WNW,288,2.0,2.0,84,0.00,-SN,,0.00,WeatherDisplay:10.37,2013-12-14 18:43:00,
2013-12-14 13:48:00,20.9,16.8,29.76,ESE,105,4.6,4.6,84,0.00,-SN,,0.00,WeatherDisplay:10.37,2013-12-14 18:48:00,
2013-12-14 13:53:00,20.9,17.1,29.76,NW,309,3.5,3.5,85,0.00,-SN,,0.00,WeatherDisplay:10.37,2013-12-14 18:53:00,
2013-12-14 13:58:00,20.7,16.9,29.76,WSW,241,3.5,3.5,85,0.00,-SN,,0.00,WeatherDisplay:10.37,2013-12-14 18:58:00,
2013-12-14 14:03:00,20.5,17.0,29.76,East,86,2.3,2.3,86,0.00,-SN,,0.00,WeatherDisplay:10.37,2013-12-14 19:03:00,
2013-12-14 14:08:00,20.4,16.9,29.75,SSE,159,2.3,2.3,86,0.00,-SN,,0.00,WeatherDisplay:10.37,2013-12-14 19:08:00,
2013-12-14 14:13:00,20.4,16.9,29.76,NW,326,1.2,1.2,86,0.00,-SN,,0.00,WeatherDisplay:10.37,2013-12-14 19:13:00,
2013-12-14 14:18:00,20.4,17.1,29.76,North,356,3.5,0.0,87,0.00,-SN,,0.00,WeatherDisplay:10.37,2013-12-14 19:18:00,
2013-12-14 14:23:00,20.4,17.1,29.76,South,172,2.3,2.3,87,0.00,-SN,,0.00,WeatherDisplay:10.37,2013-12-14 19:23:00,
2013-12-14 14:28:00,20.3,17.0,29.76,NW,309,5.8,5.8,87,0.00,-SN,,0.00,WeatherDisplay:10.37,2013-12-14 19:28:00,
2013-12-14 14:33:00,20.1,16.9,29.75,SSE,166,3.5,3.5,87,0.00,-SN,,0.00,WeatherDisplay:10.37,2013-12-14 19:33:00,
2013-12-14 14:38:00,19.8,16.6,29.75,SSW,203,2.3,2.3,87,0.00,-SN,,0.00,WeatherDisplay:10.37,2013-12-14 19:38:00,
2013-12-14 14:43:00,19.5,16.0,29.75,NW,308,4.6,4.6,86,0.00,-SN,,0.00,WeatherDisplay:10.37,2013-12-14 19:43:00,
2013-12-14 14:48:00,19.4,15.9,29.74,West,280,3.5,3.5,86,0.00,-SN,,0.00,WeatherDisplay:10.37,2013-12-14 19:48:00,
2013-12-14 14:53:00,19.2,15.7,29.74,East,91,5.8,5.8,86,0.00,-SN,,0.00,WeatherDisplay:10.37,2013-12-14 19:53:00,
2013-12-14 14:58:00,19.2,16.0,29.73,North,351,5.0,5.0,87,0.00,-SN,,0.00,WeatherDisplay:10.37,2013-12-14 19:58:00,
2013-12-14 15:03:00,19.1,15.9,29.73,SSW,205,2.3,0.0,87,0.00,-SN,,0.00,WeatherDisplay:10.37,2013-12-14 20:03:00,
2013-12-14 15:08:00,19.1,15.9,29.73,NW,305,6.9,6.9,87,0.00,-SN,,0.00,WeatherDisplay:10.37,2013-12-14 20:08:00,
2013-12-14 15:13:00,18.9,15.7,29.73,South,169,2.3,2.3,87,0.00,-SN,,0.00,WeatherDisplay:10.37,2013-12-14 20:13:00,
2013-12-14 15:18:00,18.8,15.6,29.73,North,353,3.5,3.5,87,0.00,-SN,,0.00,WeatherDisplay:10.37,2013-12-14 20:18:00,
2013-12-14 15:23:00,18.6,15.4,29.73,NE,47,4.0,4.0,87,0.00,-SN,,0.00,WeatherDisplay:10.37,2013-12-14 20:23:00,
2013-12-14 15:28:00,18.6,15.4,29.72,SW,234,3.5,3.5,87,0.00,-SN,,0.00,WeatherDisplay:10.37,2013-12-14 20:28:00,
2013-12-14 15:33:00,18.6,15.4,29.72,ESE,104,11.5,11.5,87,0.00,-SN,,0.00,WeatherDisplay:10.37,2013-12-14 20:33:00,
2013-12-14 15:38:00,18.6,15.4,29.72,NNE,33,7.0,7.0,87,0.00,-SN,,0.00,WeatherDisplay:10.37,2013-12-14 20:38:00,
2013-12-14 15:43:00,18.5,15.3,29.72,SE,124,2.3,2.3,87,0.00,-SN,,0.00,WeatherDisplay:10.37,2013-12-14 20:43:00,
2013-12-14 15:48:00,18.4,15.2,29.71,NNE,15,4.6,4.6,87,0.00,-SN,,0.00,WeatherDisplay:10.37,2013-12-14 20:48:00,
2013-12-14 15:53:00,18.3,15.1,29.72,SE,142,1.2,1.2,87,0.00,-SN,,0.00,WeatherDisplay:10.37,2013-12-14 20:53:00,
2013-12-14 15:58:00,18.3,15.1,29.72,West,274,2.3,2.3,87,0.00,-SN,,0.00,WeatherDisplay:10.37,2013-12-14 20:58:00,
2013-12-14 16:03:00,18.3,15.1,29.72,NW,312,2.3,2.3,87,0.00,-SN,,0.00,WeatherDisplay:10.37,2013-12-14 21:03:00,
2013-12-14 16:08:00,18.2,15.0,29.72,ENE,67,3.5,3.6,87,0.00,-SN,,0.00,WeatherDisplay:10.37,2013-12-14 21:08:00,
2013-12-14 16:13:00,18.2,15.0,29.71,ENE,65,3.5,3.5,87,0.00,-SN,,0.00,WeatherDisplay:10.37,2013-12-14 21:13:00,
2013-12-14 16:18:00,18.1,15.1,29.71,SW,228,4.6,4.6,88,0.00,-SN,,0.00,WeatherDisplay:10.37,2013-12-14 21:18:00,
2013-12-14 16:23:00,18.1,15.1,29.70,NNW,328,1.2,1.2,88,0.00,-SN,,0.00,WeatherDisplay:10.37,2013-12-14 21:23:00,
2013-12-14 16:28:00,18.1,15.1,29.70,ESE,123,2.0,2.0,88,0.00,-SN,,0.00,WeatherDisplay:10.37,2013-12-14 21:28:00,
2013-12-14 16:33:00,18.1,15.1,29.70,North,350,2.3,2.3,88,0.00,-SN,,0.00,WeatherDisplay:10.37,2013-12-14 21:33:00,
2013-12-14 16:38:00,17.9,14.9,29.70,NNW,342,3.5,3.5,88,0.00,-SN,,0.00,WeatherDisplay:10.37,2013-12-14 21:38:00,
2013-12-14 16:43:00,17.8,14.8,29.69,NNW,333,8.1,8.1,88,0.00,-SN,,0.00,WeatherDisplay:10.37,2013-12-14 21:43:00,
2013-12-14 16:48:00,17.7,14.8,29.68,WSW,243,5.8,5.8,88,0.00,,,0.00,WeatherDisplay:10.37,2013-12-14 21:48:00,
2013-12-14 16:53:00,17.7,14.8,29.68,NW,314,3.0,3.0,88,0.00,,,0.00,WeatherDisplay:10.37,2013-12-14 21:53:00,
2013-12-14 16:58:00,17.6,14.7,29.67,NE,37,8.1,8.1,88,0.00,,,0.00,WeatherDisplay:10.37,2013-12-14 21:58:00,
2013-12-14 17:03:00,17.5,14.6,29.67,NNE,26,4.6,4.6,88,0.00,,,0.00,WeatherDisplay:10.37,2013-12-14 22:03:00,
2013-12-14 17:08:00,17.5,14.6,29.66,NNW,329,3.5,3.5,88,0.00,,,0.00,WeatherDisplay:10.37,2013-12-14 22:08:00,
2013-12-14 17:13:00,17.5,14.8,29.66,NW,304,4.6,4.6,89,0.00,,,0.00,WeatherDisplay:10.37,2013-12-14 22:13:00,
2013-12-14 17:18:00,17.4,14.7,29.66,South,180,2.3,2.3,89,0.00,-SN,,0.00,WeatherDisplay:10.37,2013-12-14 22:18:00,
2013-12-14 17:23:00,17.4,14.7,29.66,SW,225,2.3,2.3,89,0.00,-SN,,0.00,WeatherDisplay:10.37,2013-12-14 22:23:00,
2013-12-14 17:28:00,17.4,14.7,29.66,NNE,22,4.0,4.0,89,0.00,-SN,,0.00,WeatherDisplay:10.37,2013-12-14 22:28:00,
2013-12-14 17:33:00,17.4,14.7,29.66,NNE,33,2.3,2.3,89,0.00,-SN,,0.00,WeatherDisplay:10.37,2013-12-14 22:33:00,
2013-12-14 17:38:00,17.4,14.7,29.66,NW,314,3.5,3.5,89,0.00,-SN,,0.00,WeatherDisplay:10.37,2013-12-14 22:38:00,
2013-12-14 17:43:00,17.4,14.7,29.65,NNE,19,2.3,2.3,89,0.00,-SN,,0.00,WeatherDisplay:10.37,2013-12-14 22:43:00,
2013-12-14 17:48:00,17.4,14.7,29.65,ENE,78,4.6,4.6,89,0.00,-SN,,0.00,WeatherDisplay:10.37,2013-12-14 22:48:00,
2013-12-14 17:53:00,17.5,14.8,29.65,NE,40,3.5,3.5,89,0.00,-SN,,0.00,WeatherDisplay:10.37,2013-12-14 22:53:00,
2013-12-14 17:58:00,17.5,14.8,29.66,WNW,303,3.5,3.5,89,0.00,-SN,,0.00,WeatherDisplay:10.37,2013-12-14 22:58:00,
2013-12-14 18:03:00,17.5,14.8,29.64,NNW,331,0.0,0.7,89,0.00,-SN,,0.00,WeatherDisplay:10.37,2013-12-14 23:03:00,
2013-12-14 18:08:00,17.6,14.9,29.63,NW,305,3.5,3.5,89,0.00,-SN,,0.00,WeatherDisplay:10.37,2013-12-14 23:08:00,
2013-12-14 18:13:00,17.7,15.0,29.62,NW,324,3.5,3.5,89,0.00,-SN,,0.00,WeatherDisplay:10.37,2013-12-14 23:13:00,
2013-12-14 18:18:00,17.8,15.1,29.62,West,275,2.3,2.3,89,0.00,-SN,,0.00,WeatherDisplay:10.37,2013-12-14 23:18:00,
2013-12-14 18:23:00,17.8,15.1,29.61,North,354,3.5,3.5,89,0.00,-SN,,0.00,WeatherDisplay:10.37,2013-12-14 23:23:00,
2013-12-14 18:28:00,17.9,15.2,29.61,ESE,118,4.0,4.0,89,0.00,-SN,,0.00,WeatherDisplay:10.37,2013-12-14 23:28:00,
2013-12-14 18:33:00,18.1,15.4,29.61,WNW,285,5.8,5.8,89,0.00,-SN,,0.00,WeatherDisplay:10.37,2013-12-14 23:33:00,
2013-12-14 18:38:00,18.1,15.4,29.61,West,260,2.3,2.3,89,0.00,-SN,,0.00,WeatherDisplay:10.37,2013-12-14 23:38:00,
2013-12-14 18:43:00,18.2,15.5,29.61,SSE,148,3.5,3.5,89,0.00,-SN,,0.00,WeatherDisplay:10.37,2013-12-14 23:43:00,
2013-12-14 18:48:00,18.3,15.6,29.60,NW,314,2.3,2.3,89,0.00,-SN,,0.00,WeatherDisplay:10.37,2013-12-14 23:48:00,
2013-12-14 18:53:00,18.3,15.9,29.60,NW,314,3.5,3.5,90,0.00,-SN,,0.00,WeatherDisplay:10.37,2013-12-14 23:53:00,
2013-12-14 18:58:00,18.4,16.0,29.60,NNW,338,3.5,3.5,90,0.00,-SN,,0.00,WeatherDisplay:10.37,2013-12-14 23:58:00,
2013-12-14 19:03:00,18.5,16.1,29.60,ENE,60,3.5,3.5,90,0.00,-SN,,0.00,WeatherDisplay:10.37,2013-12-15 00:03:00,
2013-12-14 19:08:00,18.6,16.2,29.59,NW,312,6.0,6.0,90,0.00,-SN,,0.00,WeatherDisplay:10.37,2013-12-15 00:08:00,
2013-12-14 19:13:00,18.7,16.3,29.59,NNE,23,3.5,3.5,90,0.00,-SN,,0.00,WeatherDisplay:10.37,2013-12-15 00:13:00,
2013-12-14 19:18:00,18.8,16.4,29.59,WSW,245,4.0,4.0,90,0.00,-SN,,0.00,WeatherDisplay:10.37,2013-12-15 00:18:00,
2013-12-14 19:23:00,18.9,16.7,29.58,NNE,21,4.0,4.0,91,0.00,-SN,,0.00,WeatherDisplay:10.37,2013-12-15 00:23:00,
2013-12-14 19:28:00,19.0,16.8,29.58,NNW,343,3.5,3.5,91,0.00,-SN,,0.00,WeatherDisplay:10.37,2013-12-15 00:28:00,
2013-12-14 19:33:00,19.0,16.8,29.57,NNE,23,3.5,3.5,91,0.00,,,0.00,WeatherDisplay:10.37,2013-12-15 00:33:00,
2013-12-14 19:38:00,19.1,16.9,29.56,NNE,23,3.5,3.5,91,0.00,,,0.00,WeatherDisplay:10.37,2013-12-15 00:38:00,
2013-12-14 19:43:00,19.2,17.0,29.56,NNW,332,2.3,2.3,91,0.00,,,0.00,WeatherDisplay:10.37,2013-12-15 00:43:00,
2013-12-14 19:48:00,19.3,17.1,29.56,West,263,3.5,3.5,91,0.00,,,0.00,WeatherDisplay:10.37,2013-12-15 00:48:00,
2013-12-14 19:53:00,19.4,17.2,29.56,ENE,57,1.2,1.2,91,0.00,,,0.00,WeatherDisplay:10.37,2013-12-15 00:53:00,
2013-12-14 19:58:00,19.6,17.4,29.55,NNE,19,2.0,2.1,91,0.00,,,0.00,WeatherDisplay:10.37,2013-12-15 00:58:00,
2013-12-14 20:03:00,19.7,17.5,29.54,NW,319,4.0,4.0,91,0.00,,,0.00,WeatherDisplay:10.37,2013-12-15 01:03:00,
2013-12-14 20:08:00,19.7,17.5,29.53,NW,308,1.0,1.0,91,0.00,,,0.00,WeatherDisplay:10.37,2013-12-15 01:08:00,
2013-12-14 20:13:00,19.8,17.6,29.54,ENE,70,6.9,6.9,91,0.00,,,0.00,WeatherDisplay:10.37,2013-12-15 01:13:00,
2013-12-14 20:18:00,19.8,17.6,29.53,NW,308,0.0,0.7,91,0.00,,,0.00,WeatherDisplay:10.37,2013-12-15 01:18:00,
2013-12-14 20:23:00,20.0,17.8,29.53,NNW,339,2.0,2.0,91,0.00,,,0.00,WeatherDisplay:10.37,2013-12-15 01:23:00,
2013-12-14 20:28:00,20.0,17.8,29.51,NNE,16,2.3,2.3,91,0.00,,,0.00,WeatherDisplay:10.37,2013-12-15 01:28:00,
2013-12-14 20:33:00,20.1,18.1,29.50,NNE,32,4.0,4.0,92,0.00,,,0.00,WeatherDisplay:10.37,2013-12-15 01:33:00,
2013-12-14 20:38:00,20.3,18.3,29.50,NW,312,2.3,2.3,92,0.00,,,0.00,WeatherDisplay:10.37,2013-12-15 01:38:00,
2013-12-14 20:43:00,20.5,18.5,29.49,SE,134,3.5,3.5,92,0.00,,,0.00,WeatherDisplay:10.37,2013-12-15 01:43:00,
2013-12-14 20:48:00,20.7,18.7,29.48,NW,321,2.0,2.0,92,0.00,,,0.00,WeatherDisplay:10.37,2013-12-15 01:48:00,
2013-12-14 20:53:00,20.8,18.8,29.47,East,99,9.2,9.2,92,0.00,,,0.00,WeatherDisplay:10.37,2013-12-15 01:53:00,
2013-12-14 20:58:00,21.1,19.1,29.46,NNE,27,2.3,2.3,92,0.00,,,0.00,WeatherDisplay:10.37,2013-12-15 01:58:00,
2013-12-14 21:03:00,21.3,19.3,29.44,NW,305,3.5,3.5,92,0.00,-SN,,0.00,WeatherDisplay:10.37,2013-12-15 02:03:00,
2013-12-14 21:08:00,21.6,19.6,29.44,East,91,3.5,3.5,92,0.00,-SN,,0.00,WeatherDisplay:10.37,2013-12-15 02:08:00,
2013-12-14 21:13:00,21.9,19.9,29.44,ENE,77,4.0,4.0,92,0.00,-SN,,0.00,WeatherDisplay:10.37,2013-12-15 02:13:00,
2013-12-14 21:18:00,22.3,20.3,29.43,WNW,294,2.3,2.3,92,0.00,-SN,,0.00,WeatherDisplay:10.37,2013-12-15 02:18:00,
2013-12-14 21:23:00,22.5,20.8,29.43,NNE,18,5.0,5.0,93,0.00,-SN,,0.00,WeatherDisplay:10.37,2013-12-15 02:23:00,
2013-12-14 21:28:00,22.9,21.2,29.43,SSE,151,6.9,6.9,93,0.00,-SN,,0.00,WeatherDisplay:10.37,2013-12-15 02:28:00,
2013-12-14 21:33:00,23.3,21.6,29.42,North,352,3.5,3.5,93,0.00,-SN,,0.00,WeatherDisplay:10.37,2013-12-15 02:33:00,
2013-12-14 21:38:00,23.6,21.9,29.42,South,186,5.8,5.8,93,0.00,-SN,,0.00,WeatherDisplay:10.37,2013-12-15 02:38:00,
2013-12-14 21:43:00,23.8,22.1,29.41,NNW,336,3.5,3.5,93,0.00,-SN,,0.00,WeatherDisplay:10.37,2013-12-15 02:43:00,
2013-12-14 21:48:00,24.0,22.3,29.41,North,8,4.6,4.6,93,0.00,-SN,,0.00,WeatherDisplay:10.37,2013-12-15 02:48:00,
2013-12-14 21:53:00,24.2,22.5,29.40,NNE,26,4.6,4.6,93,0.00,-SN,,0.00,WeatherDisplay:10.37,2013-12-15 02:53:00,
2013-12-14 21:58:00,24.5,22.8,29.39,West,280,3.5,3.5,93,0.00,-SN,,0.00,WeatherDisplay:10.37,2013-12-15 02:58:00,
2013-12-14 22:03:00,24.7,23.0,29.39,SSW,198,6.9,6.9,93,0.00,-SN,,0.00,WeatherDisplay:10.37,2013-12-15 03:03:00,
2013-12-14 22:08:00,24.9,23.2,29.39,SE,139,5.8,5.8,93,0.00,-SN,,0.00,WeatherDisplay:10.37,2013-12-15 03:08:00,
2013-12-14 22:13:00,25.2,23.5,29.38,SSE,163,10.4,10.4,93,0.00,-SN,,0.00,WeatherDisplay:10.37,2013-12-15 03:13:00,
2013-12-14 22:18:00,25.3,23.6,29.38,WNW,291,3.5,3.5,93,0.00,-SN,,0.00,WeatherDisplay:10.37,2013-12-15 03:18:00,
2013-12-14 22:23:00,25.5,23.8,29.37,West,278,3.5,3.5,93,0.00,-SN,,0.00,WeatherDisplay:10.37,2013-12-15 03:23:00,
2013-12-14 22:28:00,25.8,24.1,29.36,WNW,302,3.0,3.0,93,0.00,-SN,,0.00,WeatherDisplay:10.37,2013-12-15 03:28:00,
2013-12-14 22:33:00,25.9,24.2,29.35,SW,228,1.0,1.0,93,0.00,-SN,,0.00,WeatherDisplay:10.37,2013-12-15 03:33:00,
2013-12-14 22:38:00,26.1,24.4,29.34,North,354,5.0,5.0,93,0.00,-SN,,0.00,WeatherDisplay:10.37,2013-12-15 03:38:00,
2013-12-14 22:43:00,26.4,24.7,29.33,North,11,4.6,4.6,93,0.00,-SN,,0.00,WeatherDisplay:10.37,2013-12-15 03:43:00,
2013-12-14 22:48:00,26.6,24.8,29.31,NW,316,3.5,3.5,93,0.00,-SN,,0.00,WeatherDisplay:10.37,2013-12-15 03:48:00,
2013-12-14 22:53:00,27.0,25.2,29.31,NNW,327,8.1,8.1,93,0.00,-SN,,0.00,WeatherDisplay:10.37,2013-12-15 03:53:00,
2013-12-14 22:58:00,27.4,25.6,29.30,NW,304,6.9,6.9,93,0.00,-SN,,0.00,WeatherDisplay:10.37,2013-12-15 03:58:00,
2013-12-14 23:03:00,27.7,25.9,29.28,NNE,12,4.6,4.6,93,0.00,OVC,,0.00,WeatherDisplay:10.37,2013-12-15 04:03:00,
2013-12-14 23:08:00,28.0,26.2,29.28,ESE,111,4.6,4.6,93,0.00,OVC,,0.00,WeatherDisplay:10.37,2013-12-15 04:08:00,
2013-12-14 23:13:00,28.3,26.5,29.27,East,80,3.5,3.9,93,0.00,OVC,,0.00,WeatherDisplay:10.37,2013-12-15 04:13:00,
2013-12-14 23:18:00,28.6,26.8,29.26,NNW,333,2.3,2.3,93,0.00,OVC,,0.00,WeatherDisplay:10.37,2013-12-15 04:18:00,
2013-12-14 23:23:00,28.9,27.4,29.25,NNW,346,6.9,6.9,94,0.00,OVC,,0.00,WeatherDisplay:10.37,2013-12-15 04:23:00,
2013-12-14 23:28:00,29.2,27.7,29.24,North,1,4.6,4.6,94,0.00,OVC,,0.00,WeatherDisplay:10.37,2013-12-15 04:28:00,
2013-12-14 23:33:00,29.4,27.9,29.23,ENE,60,4.6,4.6,94,0.00,OVC,,0.00,WeatherDisplay:10.37,2013-12-15 04:33:00,
2013-12-14 23:38:00,29.5,28.0,29.23,SSE,155,3.5,3.5,94,0.00,OVC,,0.00,WeatherDisplay:10.37,2013-12-15 04:38:00,
2013-12-14 23:43:00,29.7,28.2,29.22,NE,44,3.5,3.5,94,0.00,OVC,,0.00,WeatherDisplay:10.37,2013-12-15 04:43:00,
2013-12-14 23:48:00,29.9,28.4,29.22,North,359,8.1,8.1,94,0.00,OVC,,0.00,WeatherDisplay:10.37,2013-12-15 04:48:00,
2013-12-14 23:53:00,30.1,28.6,29.21,NNE,26,5.8,5.8,94,0.00,OVC,,0.00,WeatherDisplay:10.37,2013-12-15 04:53:00,
2013-12-14 23:58:00,30.3,28.8,29.20,NW,318,11.5,11.5,94,0.00,OVC,,0.00,WeatherDisplay:10.37,2013-12-15 04:58:00,